Time;durP1;ratioP1;P1;durP2;ratioP2;P2;SDS_P1;SDS_P2;PMS_P1;PMS_P2;Temp;Humidity;BMP_temperature;BMP_pressure;BME280_temperature;BME280_humidity;BME280_pressure;Samples;Min_cycle;Max_cycle;Signal;HPM_P1;HPM_P2
2022/09/08 00:00:13;;;;;;;19.10;17.30;;;;;;;16.69;100.00;101135.91;5070336;28;20202;-73
2022/09/08 00:02:38;;;;;;;20.17;18.37;;;;;;;16.99;100.00;101191.94;5066857;28;20186;-72
2022/09/08 00:05:05;;;;;;;19.80;18.00;;;;;;;16.09;100.00;101076.38;5061568;28;20465;-72
2022/09/08 00:07:32;;;;;;;21.37;19.40;;;;;;;16.76;100.00;101175.59;5063569;28;20194;-73
2022/09/08 00:09:57;;;;;;;22.63;20.57;;;;;;;16.41;100.00;101111.34;5068844;28;20968;-72
2022/09/08 00:12:24;;;;;;;23.87;21.57;;;;;;;16.76;100.00;101176.44;5062754;28;20464;-72
2022/09/08 00:14:50;;;;;;;24.37;22.00;;;;;;;16.23;100.00;101093.28;5066647;28;20190;-72
2022/09/08 00:17:15;;;;;;;24.90;22.40;;;;;;;16.51;100.00;101149.50;5064223;28;20437;-72
2022/09/08 00:19:41;;;;;;;22.10;20.10;;;;;;;16.33;100.00;101103.53;5068275;28;20464;-72
2022/09/08 00:22:06;;;;;;;23.67;21.47;;;;;;;16.44;100.00;101106.28;5062677;28;20563;-72
2022/09/08 00:24:32;;;;;;;24.47;21.97;;;;;;;16.49;100.00;101114.53;5059125;28;20187;-73
2022/09/08 00:26:57;;;;;;;24.90;22.50;;;;;;;16.66;100.00;101159.88;5066350;28;20717;-73
2022/09/08 00:29:23;;;;;;;25.23;22.57;;;;;;;16.22;100.00;101099.72;5063263;28;20191;-72
2022/09/08 00:31:48;;;;;;;23.00;20.80;;;;;;;16.69;100.00;101143.16;5060002;28;20256;-73
2022/09/08 00:34:14;;;;;;;23.60;21.30;;;;;;;16.45;100.00;101140.41;5061657;28;20270;-72
2022/09/08 00:36:40;;;;;;;23.43;21.30;;;;;;;16.14;100.00;101068.41;5063499;28;20686;-73
2022/09/08 00:39:05;;;;;;;24.07;21.80;;;;;;;16.73;100.00;101139.78;5060447;28;20187;-73
2022/09/08 00:41:31;;;;;;;24.20;21.93;;;;;;;16.91;100.00;101135.38;5056828;28;21057;-72
2022/09/08 00:44:01;;;;;;;23.60;21.40;;;;;;;15.88;100.00;101011.94;5061132;28;20200;-72
2022/09/08 00:46:41;;;;;;;22.33;20.23;;;;;;;16.66;100.00;101139.06;5060514;28;20215;-72
2022/09/08 00:49:18;;;;;;;21.57;19.57;;;;;;;16.72;100.00;101134.59;5062962;28;20433;-72
2022/09/08 00:51:47;;;;;;;21.77;19.53;;;;;;;16.75;100.00;101126.03;5059169;28;20994;-72
2022/09/08 00:54:16;;;;;;;23.40;21.30;;;;;;;16.28;100.00;101021.13;5057610;28;20437;-74
2022/09/08 00:56:43;;;;;;;22.47;20.37;;;;;;;16.20;100.00;101043.13;5063850;28;22228;-72
2022/09/08 00:59:09;;;;;;;22.33;20.23;;;;;;;16.40;100.00;101052.81;5059654;28;20468;-72
2022/09/08 01:01:35;;;;;;;23.30;20.90;;;;;;;15.98;100.00;101010.34;5064561;28;20818;-72
2022/09/08 01:04:04;;;;;;;22.30;20.20;;;;;;;16.54;100.00;101102.16;5059302;28;20449;-73
2022/09/08 01:12:55;;;;;;;23.47;21.30;;;;;;;16.45;100.00;101055.66;5062269;28;20522;-73
2022/09/08 01:15:24;;;;;;;22.43;20.43;;;;;;;16.40;100.00;101069.06;5061926;28;20973;-73
2022/09/08 01:17:52;;;;;;;23.57;21.27;;;;;;;16.33;100.00;101077.28;5062175;28;20532;-73
2022/09/08 01:20:27;;;;;;;22.53;20.43;;;;;;;16.40;100.00;101067.19;5064970;28;20535;-73
2022/09/08 01:23:12;;;;;;;23.77;21.57;;;;;;;16.91;100.00;101065.75;5067282;28;20435;-73
2022/09/08 01:26:11;;;;;;;23.70;21.50;;;;;;;16.72;100.00;101066.88;5056448;28;20560;-73
2022/09/08 01:28:48;;;;;;;22.37;20.37;;;;;;;16.17;100.00;101019.25;5064638;28;20431;-70
2022/09/08 01:31:14;;;;;;;24.20;21.87;;;;;;;16.53;100.00;101076.97;5065758;28;20432;-70
2022/09/08 01:33:40;;;;;;;22.47;20.37;;;;;;;16.27;100.00;101064.69;5065046;28;20440;-71
2022/09/08 01:36:09;;;;;;;23.43;21.17;;;;;;;16.35;100.00;101067.06;5063654;28;20218;-71
2022/09/08 01:38:34;;;;;;;21.47;19.43;;;;;;;15.69;100.00;100982.25;5069848;28;20444;-72
2022/09/08 01:41:00;;;;;;;21.60;19.50;;;;;;;15.56;100.00;100960.75;5059927;28;20441;-72
2022/09/08 01:43:25;;;;;;;18.83;17.13;;;;;;;15.45;100.00;100950.72;5065627;28;20190;-72
2022/09/08 01:45:50;;;;;;;18.63;16.93;;;;;;;16.03;100.00;101048.38;5062495;28;20329;-72
2022/09/08 01:48:16;;;;;;;19.17;17.30;;;;;;;15.72;100.00;100979.09;5064566;28;21057;-72
2022/09/08 01:50:41;;;;;;;21.60;19.40;;;;;;;16.02;100.00;101038.59;5062787;28;20201;-71
2022/09/08 01:53:06;;;;;;;21.13;19.17;;;;;;;16.22;100.00;101053.72;5063120;28;20214;-71
2022/09/08 01:55:32;;;;;;;20.10;18.23;;;;;;;16.12;100.00;101069.69;5060107;28;20249;-72
2022/09/08 01:57:57;;;;;;;20.60;18.50;;;;;;;16.14;100.00;101035.09;5066981;28;20187;-71
2022/09/08 02:00:23;;;;;;;23.27;21.07;;;;;;;16.25;100.00;100997.22;5063711;28;20194;-71
2022/09/08 02:02:48;;;;;;;22.03;20.03;;;;;;;15.96;100.00;100977.28;5060553;28;20556;-72
2022/09/08 02:05:14;;;;;;;21.53;19.60;;;;;;;15.55;100.00;100930.22;5064206;28;20333;-72
2022/09/08 02:07:40;;;;;;;23.03;20.90;;;;;;;15.55;100.00;100915.88;5064256;28;20187;-72
2022/09/08 02:10:07;;;;;;;23.87;21.57;;;;;;;16.37;100.00;101018.09;5066482;28;20219;-71
2022/09/08 02:12:33;;;;;;;25.90;23.40;;;;;;;16.63;100.00;101019.53;5064759;28;20475;-71
2022/09/08 02:14:58;;;;;;;27.97;25.17;;;;;;;16.18;100.00;100971.34;5063899;28;20443;-71
2022/09/08 02:17:24;;;;;;;26.43;23.93;;;;;;;16.25;100.00;101018.06;5070566;28;20443;-71
2022/09/08 02:19:49;;;;;;;26.20;23.57;;;;;;;15.40;100.00;100921.69;5067530;28;20194;-71
2022/09/08 02:22:14;;;;;;;25.17;22.77;;;;;;;16.03;100.00;101020.50;5071253;28;20266;-71
2022/09/08 02:24:41;;;;;;;24.80;22.40;;;;;;;15.61;100.00;100931.16;5063196;28;20191;-71
2022/09/08 02:27:07;;;;;;;25.00;22.50;;;;;;;15.38;100.00;100934.59;5068284;28;20318;-71
2022/09/08 02:29:32;;;;;;;24.10;21.73;;;;;;;15.56;100.00;100963.47;5067197;28;21408;-71
2022/09/08 02:31:58;;;;;;;24.80;22.50;;;;;;;15.04;100.00;100882.88;5067458;28;20342;-71
2022/09/08 02:34:23;;;;;;;23.97;21.63;;;;;;;15.29;100.00;100935.97;5057798;28;20186;-72
2022/09/08 02:36:49;;;;;;;24.67;22.27;;;;;;;15.64;100.00;100992.91;5067333;28;20702;-72
2022/09/08 02:39:19;;;;;;;23.97;21.67;;;;;;;16.32;100.00;101031.50;5067497;28;20644;-72
2022/09/08 02:41:45;;;;;;;24.90;22.60;;;;;;;15.55;100.00;100861.81;5074451;28;20712;-72
2022/09/08 02:44:14;;;;;;;24.40;22.00;;;;;;;16.39;100.00;101013.28;5068865;28;20465;-72
2022/09/08 02:46:40;;;;;;;24.47;22.23;;;;;;;16.37;100.00;101023.50;5075248;28;20198;-72
2022/09/08 02:49:06;;;;;;;25.93;23.40;;;;;;;16.27;100.00;101022.19;5072366;28;20433;-72
2022/09/08 02:51:32;;;;;;;25.73;23.23;;;;;;;15.73;100.00;100907.72;5072384;28;20473;-72
2022/09/08 02:53:58;;;;;;;25.03;22.63;;;;;;;15.80;100.00;100903.06;5071896;28;20446;-72
2022/09/08 02:56:24;;;;;;;28.00;25.17;;;;;;;16.47;100.00;101021.88;5072466;28;20464;-72
2022/09/08 02:58:50;;;;;;;27.37;24.57;;;;;;;15.63;100.00;100898.50;5075789;28;20207;-72
2022/09/08 03:01:16;;;;;;;27.20;24.60;;;;;;;16.49;100.00;101013.53;5073040;28;20433;-71
2022/09/08 03:03:41;;;;;;;27.40;24.60;;;;;;;16.56;100.00;100973.63;5073091;28;20264;-72
2022/09/08 03:06:07;;;;;;;30.63;27.57;;;;;;;16.56;100.00;100968.19;5073211;28;20246;-71
2022/09/08 03:08:33;;;;;;;29.50;26.60;;;;;;;16.53;100.00;101000.34;5070857;28;20179;-71
2022/09/08 03:11:00;;;;;;;30.43;27.27;;;;;;;16.40;100.00;100941.81;5075824;28;20456;-71
2022/09/08 03:13:26;;;;;;;30.93;27.83;;;;;;;16.48;100.00;101011.88;5072502;28;20836;-72
2022/09/08 03:15:51;;;;;;;32.10;28.65;;;;;;;16.35;100.00;101014.81;5066317;28;20456;-71
2022/09/08 03:18:17;;;;;;;35.73;32.20;;;;;;;15.95;100.00;100996.47;5073474;28;20262;-71
2022/09/08 03:20:44;;;;;;;32.70;29.40;;;;;;;16.27;100.00;101011.38;5074063;28;20647;-71
2022/09/08 03:23:20;;;;;;;32.13;28.80;;;;;;;16.67;100.00;101015.31;5073872;28;20960;-71
2022/09/08 03:25:47;;;;;;;33.60;30.20;;;;;;;16.23;100.00;100915.47;5068825;28;20473;-71
2022/09/08 03:28:21;;;;;;;32.50;29.30;;;;;;;16.60;100.00;101012.69;5067613;28;20441;-71
2022/09/08 03:30:47;;;;;;;32.80;29.50;;;;;;;16.89;100.00;101000.16;5070105;28;20929;-71
2022/09/08 03:33:12;;;;;;;33.70;30.40;;;;;;;16.79;100.00;100972.81;5067780;28;20497;-72
2022/09/08 03:35:38;;;;;;;33.83;30.43;;;;;;;15.79;100.00;100814.88;5078842;22;20210;-75
2022/09/08 03:38:03;;;;;;;34.50;30.90;;;;;;;15.74;100.00;100795.00;5023171;28;20213;-75
2022/09/08 03:40:29;;;;;;;31.60;28.40;;;;;;;15.37;100.00;100746.47;5029794;28;20188;-75
2022/09/08 03:42:54;;;;;;;35.07;31.60;;;;;;;16.97;100.00;101008.97;5017213;28;20188;-75
2022/09/08 03:45:20;;;;;;;35.07;31.57;;;;;;;15.29;100.00;100717.09;5029443;28;20515;-75
2022/09/08 03:47:46;;;;;;;35.87;32.27;;;;;;;16.21;100.00;100849.09;5008461;28;20193;-75
2022/09/08 03:50:16;;;;;;;35.70;32.00;;;;;;;15.35;100.00;100699.94;4993373;28;20865;-75
2022/09/08 03:52:42;;;;;;;36.17;32.50;;;;;;;16.47;100.00;100845.91;5011727;28;20916;-75
2022/09/08 03:55:09;;;;;;;36.23;32.43;;;;;;;16.89;100.00;100986.59;5014175;28;20447;-75
2022/09/08 03:57:35;;;;;;;33.83;30.67;;;;;;;15.38;100.00;100732.72;5014343;28;20481;-75
2022/09/08 04:00:01;;;;;;;34.60;31.30;;;;;;;16.69;100.00;100994.22;5013297;28;20832;-75
2022/09/08 04:02:29;;;;;;;36.70;33.00;;;;;;;14.89;100.00;100702.31;5011907;28;20185;-75
2022/09/08 04:04:56;;;;;;;37.27;33.67;;;;;;;14.62;100.00;100645.19;5004180;28;20546;-75
2022/09/08 04:07:24;;;;;;;35.70;32.20;;;;;;;15.91;100.00;100873.53;5012785;28;20467;-75
2022/09/08 04:09:50;;;;;;;36.87;33.00;;;;;;;16.91;100.00;100991.78;4999982;28;20478;-75
2022/09/08 04:12:16;;;;;;;36.23;32.60;;;;;;;15.30;100.00;100716.88;5007650;28;20466;-75
2022/09/08 04:14:42;;;;;;;35.63;32.13;;;;;;;15.95;100.00;100853.09;5005361;28;20187;-75
2022/09/08 04:17:09;;;;;;;36.23;32.63;;;;;;;15.53;100.00;100807.13;5010413;28;20295;-75
2022/09/08 04:19:35;;;;;;;36.60;32.87;;;;;;;16.28;100.00;100822.72;5007789;28;21034;-75
2022/09/08 04:22:01;;;;;;;36.13;32.67;;;;;;;15.59;100.00;100731.34;5006448;28;20571;-75
2022/09/08 04:24:28;;;;;;;37.73;34.03;;;;;;;14.99;100.00;100688.28;4992600;28;20435;-75
2022/09/08 04:26:54;;;;;;;39.93;36.10;;;;;;;16.34;100.00;100829.91;5011291;28;20467;-75
2022/09/08 04:29:20;;;;;;;41.07;36.83;;;;;;;16.44;100.00;100824.72;4988783;28;20435;-75
2022/09/08 04:31:47;;;;;;;40.00;35.87;;;;;;;14.76;100.00;100615.31;5005177;28;20467;-72
2022/09/08 04:34:14;;;;;;;41.63;37.50;;;;;;;15.50;100.00;100711.09;5012326;28;20726;-74
2022/09/08 04:36:40;;;;;;;41.67;37.57;;;;;;;15.64;100.00;100744.16;5010468;28;20883;-75
2022/09/08 04:39:06;;;;;;;40.30;36.27;;;;;;;15.40;100.00;100781.16;5009713;28;20534;-75
2022/09/08 04:41:31;;;;;;;39.07;35.17;;;;;;;15.51;100.00;100801.16;5011936;28;20526;-74
2022/09/08 04:44:02;;;;;;;41.20;37.10;;;;;;;16.36;100.00;100838.63;4991754;28;20180;-75
2022/09/08 04:46:28;;;;;;;40.60;36.47;;;;;;;17.07;100.00;100982.09;4992152;28;20204;-74
2022/09/08 04:48:54;;;;;;;40.67;36.47;;;;;;;16.12;100.00;100816.16;5005839;28;21008;-74
2022/09/08 04:51:20;;;;;;;38.20;34.35;;;;;;;16.10;100.00;100826.38;4994571;28;20214;-75
2022/09/08 04:53:46;;;;;;;40.23;35.90;;;;;;;14.92;100.00;100655.94;4985615;28;20779;-74
2022/09/08 04:56:13;;;;;;;42.60;38.40;;;;;;;16.27;100.00;100811.09;5004098;28;20463;-75
2022/09/08 04:58:41;;;;;;;40.67;36.47;;;;;;;15.35;100.00;100675.63;5012342;28;20930;-75
2022/09/08 05:01:12;;;;;;;38.23;34.33;;;;;;;15.35;100.00;100664.81;5005573;28;20445;-74
2022/09/08 05:03:38;;;;;;;39.40;35.60;;;;;;;14.90;100.00;100585.16;5008599;28;20469;-74
2022/09/08 05:06:09;;;;;;;37.70;34.00;;;;;;;16.10;100.00;100774.16;5010826;28;20463;-75
2022/09/08 05:08:34;;;;;;;39.57;35.40;;;;;;;16.24;100.00;100789.91;5009468;28;20196;-74
2022/09/08 05:11:00;;;;;;;38.47;34.60;;;;;;;15.05;100.00;100573.91;4992579;28;20443;-75
2022/09/08 05:13:26;;;;;;;43.33;38.90;;;;;;;15.36;100.00;100604.28;4989119;28;20197;-75
2022/09/08 05:15:52;;;;;;;41.73;37.20;;;;;;;16.25;100.00;100733.91;5013882;28;20456;-74
2022/09/08 05:18:17;;;;;;;43.90;39.60;;;;;;;15.48;100.00;100609.72;5011257;28;20458;-75
2022/09/08 05:20:43;;;;;;;39.10;35.27;;;;;;;15.41;100.00;100585.50;5010569;28;20192;-74
2022/09/08 05:23:09;;;;;;;38.80;35.00;;;;;;;15.29;100.00;100563.88;5012716;28;20185;-74
2022/09/08 05:25:34;;;;;;;44.00;39.43;;;;;;;15.44;100.00;100617.44;5014370;28;20195;-75
2022/09/08 05:28:00;;;;;;;42.60;38.40;;;;;;;16.16;100.00;100713.69;5015005;28;20231;-75
2022/09/08 05:30:26;;;;;;;43.13;38.83;;;;;;;16.35;100.00;100738.72;5017292;28;20199;-74
2022/09/08 05:32:51;;;;;;;43.23;38.77;;;;;;;16.66;100.00;100780.75;5000556;28;20204;-75
2022/09/08 05:35:16;;;;;;;40.47;36.47;;;;;;;16.90;100.00;100811.34;5005436;28;20439;-75
2022/09/08 05:37:42;;;;;;;41.97;37.67;;;;;;;16.40;100.00;100731.53;5010783;28;20388;-75
2022/09/08 05:40:08;;;;;;;44.17;39.80;;;;;;;15.47;100.00;100567.50;5011199;28;20197;-75
2022/09/08 05:42:33;;;;;;;41.90;37.60;;;;;;;17.51;100.00;100901.09;5013881;28;20173;-74
2022/09/08 05:44:59;;;;;;;42.33;38.27;;;;;;;15.79;100.00;100584.16;5011744;28;20514;-74
2022/09/08 05:47:24;;;;;;;41.47;37.03;;;;;;;15.73;100.00;100598.63;5013134;28;20304;-74
2022/09/08 05:49:50;;;;;;;39.70;35.73;;;;;;;15.10;100.00;100517.28;5020222;28;20183;-75
2022/09/08 05:52:15;;;;;;;39.43;35.43;;;;;;;16.55;100.00;100760.78;5019075;28;20200;-74
2022/09/08 05:54:41;;;;;;;40.63;36.53;;;;;;;15.70;100.00;100599.13;5017295;28;20239;-75
2022/09/08 05:57:06;;;;;;;42.53;38.27;;;;;;;15.54;100.00;100524.97;5017341;28;20224;-75
2022/09/08 05:59:31;;;;;;;38.90;35.10;;;;;;;16.80;100.00;100741.50;5018389;28;20187;-75
2022/09/08 06:01:57;;;;;;;39.00;35.30;;;;;;;16.23;100.00;100650.25;5015839;28;20177;-75
2022/09/08 06:04:22;;;;;;;40.07;36.13;;;;;;;16.43;100.00;100701.25;5014218;28;20181;-74
2022/09/08 06:06:48;;;;;;;40.77;36.63;;;;;;;16.25;100.00;100653.53;5000048;28;20666;-74
2022/09/08 06:09:13;;;;;;;38.77;34.90;;;;;;;15.14;100.00;100507.66;4986984;28;20196;-75
2022/09/08 06:11:39;;;;;;;40.80;36.73;;;;;;;16.36;100.00;100678.09;5017046;28;20221;-75
2022/09/08 06:14:05;;;;;;;34.73;31.07;;;;;;;15.90;100.00;100563.56;5017425;28;20176;-75
2022/09/08 06:16:32;;;;;;;34.20;30.80;;;;;;;17.73;100.00;100879.50;5007290;28;20762;-75
2022/09/08 06:19:01;;;;;;;35.70;32.23;;;;;;;15.95;100.00;100547.44;5018422;28;20429;-74
2022/09/08 06:21:29;;;;;;;35.60;31.87;;;;;;;16.47;100.00;100629.31;5000535;28;20464;-75
2022/09/08 06:23:58;;;;;;;35.23;31.80;;;;;;;16.80;100.00;100697.34;5007597;28;20475;-74
2022/09/08 06:26:38;;;;;;;32.80;29.50;;;;;;;17.79;100.00;100824.28;4989091;28;20458;-74
2022/09/08 06:29:13;;;;;;;34.33;30.93;;;;;;;16.66;100.00;100656.16;5002075;28;20432;-74
2022/09/08 06:31:50;;;;;;;32.47;29.43;;;;;;;17.86;100.00;100843.13;4999055;28;20490;-75
2022/09/08 06:34:23;;;;;;;32.37;29.37;;;;;;;16.92;100.00;100703.53;5020853;28;20452;-75
2022/09/08 06:36:52;;;;;;;31.23;28.30;;;;;;;15.76;100.00;100493.50;4990200;28;20487;-75
2022/09/08 06:39:27;;;;;;;30.73;27.80;;;;;;;17.80;100.00;100847.66;5016620;28;20423;-75
2022/09/08 06:42:16;;;;;;;31.00;27.87;;;;;;;16.90;100.00;100690.25;5015711;28;20431;-75
2022/09/08 06:44:45;;;;;;;30.07;27.17;;;;;;;16.48;100.00;100662.63;5017254;28;20458;-75
2022/09/08 06:47:18;;;;;;;30.40;27.53;;;;;;;17.80;100.00;100861.22;5017883;28;20489;-75
2022/09/08 06:49:44;;;;;;;31.77;28.47;;;;;;;16.98;100.00;100678.19;5019666;28;20514;-75
2022/09/08 06:52:37;;;;;;;31.00;28.00;;;;;;;16.00;100.00;100542.94;4993188;28;20466;-75
2022/09/08 06:55:14;;;;;;;31.53;28.33;;;;;;;17.15;100.00;100716.97;5014641;28;20185;-75
2022/09/08 06:58:03;;;;;;;30.40;27.30;;;;;;;16.50;100.00;100628.84;5016565;28;20446;-75
2022/09/08 07:00:40;;;;;;;29.83;26.90;;;;;;;16.05;100.00;100544.91;4974451;28;20454;-75
2022/09/08 07:03:16;;;;;;;30.43;27.40;;;;;;;17.85;100.00;100834.19;5000695;28;20876;-75
2022/09/08 07:06:06;;;;;;;30.67;27.73;;;;;;;17.72;100.00;100840.72;5006830;28;20458;-75
2022/09/08 07:08:55;;;;;;;30.50;27.50;;;;;;;16.52;100.00;100654.81;5010374;28;20466;-75
2022/09/08 07:11:28;;;;;;;27.63;24.90;;;;;;;17.83;100.00;100829.00;5004799;28;20471;-75
2022/09/08 07:14:08;;;;;;;26.80;24.20;;;;;;;17.83;100.00;100825.47;4995738;28;20498;-75
2022/09/08 07:16:42;;;;;;;28.33;25.30;;;;;;;16.22;100.00;100570.13;5009907;28;20972;-75
2022/09/08 07:19:26;;;;;;;29.97;27.10;;;;;;;16.14;100.00;100534.50;5012781;28;20451;-75
2022/09/08 07:22:01;;;;;;;27.50;24.83;;;;;;;17.17;100.00;100720.22;5005589;28;20444;-75
2022/09/08 07:24:34;;;;;;;28.87;26.27;;;;;;;18.01;100.00;100833.34;5016490;28;20950;-74
2022/09/08 07:27:03;;;;;;;26.73;24.10;;;;;;;15.93;100.00;100490.03;5010805;28;20455;-76
2022/09/08 07:29:47;;;;;;;27.20;24.70;;;;;;;18.09;100.00;100823.97;4983795;28;20459;-74
2022/09/08 07:32:20;;;;;;;28.10;25.40;;;;;;;16.16;100.00;100510.75;5005144;28;20462;-74
2022/09/08 07:34:52;;;;;;;24.90;22.67;;;;;;;17.98;100.00;100830.31;5004578;28;20943;-74
2022/09/08 07:37:28;;;;;;;24.77;22.47;;;;;;;17.00;100.00;100732.13;4988053;28;20473;-74
2022/09/08 07:40:18;;;;;;;24.27;21.93;;;;;;;17.65;100.00;100886.19;5010508;28;20942;-74
2022/09/08 07:42:50;;;;;;;25.20;22.90;;;;;;;16.30;100.00;100722.38;4996702;28;20546;-74
2022/09/08 07:45:16;;;;;;;27.13;24.00;;;;;;;16.48;100.00;100701.34;4998355;28;20486;-74
2022/09/08 07:48:03;;;;;;;26.50;23.90;;;;;;;16.64;100.00;100753.09;5008113;28;20590;-75
2022/09/08 07:50:54;;;;;;;25.33;22.93;;;;;;;16.39;100.00;100691.97;5000263;28;20517;-72
2022/09/08 07:53:49;;;;;;;22.70;20.70;;;;;;;17.73;100.00;100902.03;5008539;28;21347;-74
2022/09/08 07:56:21;;;;;;;26.27;23.77;;;;;;;17.46;100.00;100833.22;4970548;28;20545;-73
2022/09/08 07:58:58;;;;;;;25.53;23.23;;;;;;;17.92;100.00;100888.28;5015494;28;20440;-71
2022/09/08 08:02:16;;;;;;;26.67;24.17;;;;;;;17.58;100.00;100897.16;5014069;28;20438;-73
2022/09/08 08:05:02;;;;;;;24.67;22.37;;;;;;;17.59;100.00;100895.28;4944760;28;20509;-73
2022/09/08 08:07:59;;;;;;;23.85;21.55;;;;;;;17.19;100.00;100809.44;4987723;28;20463;-74
2022/09/08 08:10:39;;;;;;;25.33;22.93;;;;;;;17.19;100.00;100812.16;5009667;28;20441;-75
2022/09/08 08:13:14;;;;;;;26.03;23.63;;;;;;;17.32;100.00;100862.50;5012531;28;20510;-75
2022/09/08 08:15:55;;;;;;;28.10;25.30;;;;;;;16.87;100.00;100782.00;5005841;28;20427;-75
2022/09/08 08:18:33;;;;;;;28.70;25.80;;;;;;;17.52;100.00;100913.59;4986484;28;20785;-74
2022/09/08 08:21:15;;;;;;;27.57;24.83;;;;;;;17.62;100.00;100911.91;5007522;28;20518;-71
2022/09/08 08:24:01;;;;;;;25.97;23.50;;;;;;;17.91;100.00;100913.78;5009558;28;20450;-73
2022/09/08 08:26:48;;;;;;;25.57;23.07;;;;;;;17.97;100.00;100913.59;5016629;28;20443;-74
2022/09/08 08:29:28;;;;;;;26.00;23.50;;;;;;;17.40;100.00;100843.16;5012275;28;20906;-74
2022/09/08 08:32:03;;;;;;;25.80;23.33;;;;;;;17.91;100.00;100930.88;5016427;28;20467;-74
2022/09/08 08:34:52;;;;;;;29.77;26.87;;;;;;;17.76;100.00;100908.84;4993095;28;20442;-73
2022/09/08 08:37:25;;;;;;;26.30;23.90;;;;;;;17.34;100.00;100819.72;5009421;28;20490;-73
2022/09/08 08:39:55;;;;;;;26.40;23.77;;;;;;;17.17;100.00;100792.59;5007352;28;20431;-74
2022/09/08 08:42:55;;;;;;;26.95;24.35;;;;;;;17.94;100.00;100916.00;4986290;28;20843;-74
2022/09/08 08:45:45;;;;;;;29.50;26.70;;;;;;;18.02;100.00;100908.28;5009410;28;20448;-73
2022/09/08 08:48:50;;;;;;;26.03;23.63;;;;;;;18.28;100.00;100895.06;5011505;28;20467;-75
2022/09/08 08:51:34;;;;;;;24.53;22.13;;;;;;;18.24;100.00;100891.22;4982961;28;20491;-74
2022/09/08 08:54:27;;;;;;;25.37;22.87;;;;;;;18.26;100.00;100889.09;5011127;28;20975;-74
2022/09/08 08:57:27;;;;;;;27.67;25.03;;;;;;;18.29;100.00;100872.31;5013716;28;20526;-74
2022/09/08 09:00:04;;;;;;;24.57;22.37;;;;;;;18.32;100.00;100888.09;5012675;28;20432;-74
2022/09/08 09:02:52;;;;;;;24.40;22.10;;;;;;;18.53;100.00;100887.31;5012038;28;20427;-74
2022/09/08 09:05:57;;;;;;;23.83;21.70;;;;;;;17.72;100.00;100745.78;5011741;28;20432;-75
2022/09/08 09:08:28;;;;;;;24.37;21.97;;;;;;;18.74;100.00;100863.97;4990189;28;20446;-75
2022/09/08 09:11:35;;;;;;;25.03;21.77;;;;;;;18.55;100.00;100840.88;5012298;28;20514;-74
2022/09/08 09:14:21;;;;;;;25.80;23.17;;;;;;;18.26;100.00;100794.88;5009757;28;20456;-75
2022/09/08 09:16:54;;;;;;;24.23;21.83;;;;;;;17.86;100.00;100768.00;5006541;28;20463;-74
2022/09/08 09:19:47;;;;;;;26.40;23.80;;;;;;;18.52;100.00;100854.97;5013448;28;20954;-74
2022/09/08 09:22:25;;;;;;;23.40;21.20;;;;;;;18.51;100.00;100858.75;5009200;28;20443;-74
2022/09/08 09:25:12;;;;;;;28.43;25.83;;;;;;;18.07;100.00;100826.09;5016565;28;20435;-74
2022/09/08 09:27:46;;;;;;;26.50;24.00;;;;;;;17.56;100.00;100781.84;5002589;28;20489;-77
2022/09/08 09:30:14;;;;;;;28.23;25.33;;;;;;;18.11;100.00;100876.13;4980720;28;20438;-75
2022/09/08 09:33:13;;;;;;;29.53;26.60;;;;;;;17.89;100.00;100867.06;4996520;28;20537;-73
2022/09/08 09:36:06;;;;;;;27.63;24.70;;;;;;;17.08;100.00;100720.88;5010931;28;21603;-76
2022/09/08 09:38:58;;;;;;;23.97;21.77;;;;;;;17.65;100.00;100784.97;5005665;28;20436;-76
2022/09/08 09:41:33;;;;;;;28.33;25.70;;;;;;;16.99;100.00;100712.34;5006048;28;20826;-73
2022/09/08 09:44:19;;;;;;;25.90;23.40;;;;;;;18.15;100.00;100881.88;5013354;28;20438;-76
2022/09/08 09:47:09;;;;;;;26.43;23.40;;;;;;;18.18;100.00;100892.22;5010234;28;20458;-76
2022/09/08 09:50:06;;;;;;;30.77;24.33;;;;;;;18.06;100.00;100908.59;5002313;28;20430;-76
2022/09/08 09:52:46;;;;;;;30.33;26.90;;;;;;;18.20;100.00;100914.53;5003732;28;20467;-75
2022/09/08 09:55:49;;;;;;;36.27;28.50;;;;;;;18.16;100.00;100916.06;5000890;28;20482;-74
2022/09/08 10:01:28;;;;;;;26.50;23.70;;;;;;;16.44;100.00;100685.84;5023114;28;20486;-72
2022/09/08 10:04:00;;;;;;;29.60;26.50;;;;;;;17.77;100.00;100905.91;5034429;28;20438;-72
2022/09/08 10:06:44;;;;;;;27.80;25.03;;;;;;;17.76;100.00;100900.72;5031547;28;20462;-72
2022/09/08 10:09:15;;;;;;;30.43;27.53;;;;;;;17.58;100.00;100899.06;5033631;28;20511;-71
2022/09/08 10:12:12;;;;;;;33.00;29.60;;;;;;;17.47;100.00;100897.22;5036136;28;20824;-71
2022/09/08 10:15:03;;;;;;;28.50;25.80;;;;;;;17.68;100.00;100890.28;5033500;28;20450;-72
2022/09/08 10:17:47;;;;;;;28.70;25.80;;;;;;;17.55;100.00;100894.94;5010102;28;20445;-73
2022/09/08 10:20:51;;;;;;;27.00;24.53;;;;;;;17.84;100.00;100898.47;5031001;28;20533;-72
2022/09/08 10:23:31;;;;;;;29.47;26.37;;;;;;;17.64;100.00;100884.50;5010992;28;20460;-73
2022/09/08 10:25:59;;;;;;;26.60;24.03;;;;;;;17.76;100.00;100900.72;5033716;28;20439;-72
2022/09/08 10:28:57;;;;;;;25.10;22.77;;;;;;;17.94;100.00;100905.16;5032011;28;20458;-72
2022/09/08 10:32:00;;;;;;;25.50;22.87;;;;;;;17.92;100.00;100908.09;5033809;28;20462;-72
2022/09/08 10:34:37;;;;;;;24.50;22.20;;;;;;;18.02;100.00;100915.56;5035652;28;20415;-73
2022/09/08 10:37:49;;;;;;;24.90;22.50;;;;;;;17.88;100.00;100909.66;5034940;28;20442;-73
2022/09/08 10:40:36;;;;;;;23.50;21.30;;;;;;;17.65;100.00;100858.22;5030809;28;20962;-73
2022/09/08 10:43:26;;;;;;;22.10;19.90;;;;;;;18.17;100.00;100921.25;5023976;28;20427;-74
2022/09/08 10:46:44;;;;;;;26.80;24.33;;;;;;;17.15;100.00;100838.06;5032075;28;20441;-73
2022/09/08 10:49:19;;;;;;;23.77;21.37;;;;;;;17.94;100.00;100913.28;5034521;28;20458;-73
2022/09/08 10:51:57;;;;;;;26.27;23.47;;;;;;;17.50;100.00;100921.13;5030936;28;20809;-73
2022/09/08 10:54:51;;;;;;;22.77;20.57;;;;;;;17.63;100.00;100904.56;5032295;28;20442;-73
2022/09/08 10:57:55;;;;;;;22.20;20.00;;;;;;;17.32;100.00;100893.16;5037139;28;20431;-73
2022/09/08 11:00:23;;;;;;;18.17;16.33;;;;;;;17.81;100.00;100946.97;5030901;28;20494;-73
2022/09/08 11:03:22;;;;;;;17.47;15.87;;;;;;;17.70;100.00;100934.25;5034120;28;20450;-74
2022/09/08 11:06:06;;;;;;;17.80;16.17;;;;;;;17.78;100.00;100956.41;5033165;28;20427;-73
2022/09/08 11:08:51;;;;;;;24.53;16.30;;;;;;;17.61;100.00;100958.22;5033670;28;20886;-73
2022/09/08 11:11:34;;;;;;;19.50;15.30;;;;;;;17.73;100.00;100966.31;5032752;28;20442;-73
2022/09/08 11:14:04;;;;;;;18.30;14.90;;;;;;;16.97;100.00;100840.97;5026374;28;21371;-72
2022/09/08 11:16:48;;;;;;;17.53;14.50;;;;;;;17.97;100.00;100970.59;5012382;28;20980;-73
2022/09/08 11:19:23;;;;;;;18.33;15.83;;;;;;;18.01;100.00;100962.78;5020306;28;20485;-73
2022/09/08 11:22:29;;;;;;;18.80;15.60;;;;;;;18.04;100.00;100959.56;5018078;28;20956;-73
2022/09/08 11:25:19;;;;;;;16.83;15.03;;;;;;;18.01;100.00;100960.06;5020464;28;20448;-73
2022/09/08 11:28:04;;;;;;;19.73;15.03;;;;;;;17.41;100.00;100893.59;5027308;28;20451;-72
2022/09/08 11:30:48;;;;;;;29.13;16.10;;;;;;;18.05;100.00;100956.63;5035243;28;20508;-72
2022/09/08 11:33:48;;;;;;;15.90;14.20;;;;;;;17.01;100.00;100886.34;5035279;28;20457;-72
2022/09/08 11:36:32;;;;;;;16.70;15.00;;;;;;;17.30;100.00;100968.50;5022583;28;20444;-71
2022/09/08 11:39:05;;;;;;;26.27;15.30;;;;;;;17.71;100.00;100960.34;5019221;28;20451;-72
2022/09/08 11:42:10;;;;;;;14.20;12.10;;;;;;;17.26;100.00;100907.69;5016824;28;20573;-72